sensor_id;sensor_type;location;lat;lon;timestamp;P1;durP1;ratioP1;P2;durP2;ratioP2
1765;SDS011;880;52.452;8.656;2023-04-24T00:01:49;3.13;;;2.92;;
1765;SDS011;880;52.452;8.656;2023-04-24T00:04:18;3.20;;;3.00;;
1765;SDS011;880;52.452;8.656;2023-04-24T00:06:45;4.03;;;3.80;;
1765;SDS011;880;52.452;8.656;2023-04-24T00:09:15;4.35;;;4.05;;
1765;SDS011;880;52.452;8.656;2023-04-24T00:11:42;3.50;;;3.20;;
1765;SDS011;880;52.452;8.656;2023-04-24T00:14:09;4.85;;;2.60;;
1765;SDS011;880;52.452;8.656;2023-04-24T00:16:36;3.20;;;3.05;;
1765;SDS011;880;52.452;8.656;2023-04-24T00:19:03;3.03;;;2.83;;
1765;SDS011;880;52.452;8.656;2023-04-24T00:21:32;2.65;;;2.55;;
1765;SDS011;880;52.452;8.656;2023-04-24T00:23:58;3.30;;;3.10;;
1765;SDS011;880;52.452;8.656;2023-04-24T00:26:26;2.92;;;2.78;;
1765;SDS011;880;52.452;8.656;2023-04-24T00:28:53;3.20;;;3.00;;
1765;SDS011;880;52.452;8.656;2023-04-24T00:31:20;3.97;;;3.78;;
1765;SDS011;880;52.452;8.656;2023-04-24T00:33:47;4.50;;;4.28;;
1765;SDS011;880;52.452;8.656;2023-04-24T00:36:14;3.25;;;3.05;;
1765;SDS011;880;52.452;8.656;2023-04-24T00:38:41;4.05;;;3.85;;
1765;SDS011;880;52.452;8.656;2023-04-24T00:41:08;4.05;;;3.75;;
1765;SDS011;880;52.452;8.656;2023-04-24T00:43:35;3.50;;;3.30;;
1765;SDS011;880;52.452;8.656;2023-04-24T00:46:02;3.50;;;3.05;;
1765;SDS011;880;52.452;8.656;2023-04-24T00:48:29;3.03;;;2.92;;
1765;SDS011;880;52.452;8.656;2023-04-24T00:50:57;4.55;;;4.25;;
1765;SDS011;880;52.452;8.656;2023-04-24T00:53:25;3.83;;;3.40;;
1765;SDS011;880;52.452;8.656;2023-04-24T00:55:52;4.05;;;3.75;;
1765;SDS011;880;52.452;8.656;2023-04-24T00:58:19;4.32;;;4.13;;
1765;SDS011;880;52.452;8.656;2023-04-24T01:00:46;3.75;;;3.55;;
1765;SDS011;880;52.452;8.656;2023-04-24T01:03:15;2.78;;;2.67;;
1765;SDS011;880;52.452;8.656;2023-04-24T01:05:43;3.45;;;2.88;;
1765;SDS011;880;52.452;8.656;2023-04-24T01:08:10;4.40;;;4.20;;
1765;SDS011;880;52.452;8.656;2023-04-24T01:10:37;4.70;;;4.50;;
1765;SDS011;880;52.452;8.656;2023-04-24T01:13:07;2.47;;;2.38;;
1765;SDS011;880;52.452;8.656;2023-04-24T01:15:34;3.25;;;2.85;;
1765;SDS011;880;52.452;8.656;2023-04-24T01:18:02;2.88;;;2.78;;
1765;SDS011;880;52.452;8.656;2023-04-24T01:20:29;3.03;;;2.92;;
1765;SDS011;880;52.452;8.656;2023-04-24T01:22:58;3.03;;;2.92;;
1765;SDS011;880;52.452;8.656;2023-04-24T01:25:25;5.05;;;3.22;;
1765;SDS011;880;52.452;8.656;2023-04-24T01:28:00;3.65;;;3.45;;
1765;SDS011;880;52.452;8.656;2023-04-24T01:30:27;3.30;;;3.05;;
1765;SDS011;880;52.452;8.656;2023-04-24T01:32:56;3.10;;;2.90;;
1765;SDS011;880;52.452;8.656;2023-04-24T01:35:25;3.55;;;3.35;;
1765;SDS011;880;52.452;8.656;2023-04-24T01:37:52;3.53;;;3.22;;
1765;SDS011;880;52.452;8.656;2023-04-24T01:40:19;2.90;;;2.70;;
1765;SDS011;880;52.452;8.656;2023-04-24T01:42:46;4.13;;;3.92;;
1765;SDS011;880;52.452;8.656;2023-04-24T01:45:13;2.97;;;2.78;;
1765;SDS011;880;52.452;8.656;2023-04-24T01:47:40;4.07;;;3.78;;
1765;SDS011;880;52.452;8.656;2023-04-24T01:50:08;2.83;;;2.70;;
1765;SDS011;880;52.452;8.656;2023-04-24T01:52:37;2.67;;;2.50;;
1765;SDS011;880;52.452;8.656;2023-04-24T01:55:05;3.97;;;3.78;;
1765;SDS011;880;52.452;8.656;2023-04-24T01:57:33;3.10;;;3.00;;
1765;SDS011;880;52.452;8.656;2023-04-24T02:00:00;4.32;;;4.13;;
1765;SDS011;880;52.452;8.656;2023-04-24T02:02:27;3.35;;;3.22;;
1765;SDS011;880;52.452;8.656;2023-04-24T02:04:56;3.05;;;2.85;;
1765;SDS011;880;52.452;8.656;2023-04-24T02:07:23;3.00;;;2.90;;
1765;SDS011;880;52.452;8.656;2023-04-24T02:09:50;3.95;;;3.75;;
1765;SDS011;880;52.452;8.656;2023-04-24T02:12:17;3.03;;;2.83;;
1765;SDS011;880;52.452;8.656;2023-04-24T02:14:44;2.85;;;2.70;;
1765;SDS011;880;52.452;8.656;2023-04-24T02:17:11;4.40;;;3.90;;
1765;SDS011;880;52.452;8.656;2023-04-24T02:19:39;4.13;;;3.78;;
1765;SDS011;880;52.452;8.656;2023-04-24T02:22:06;2.75;;;2.55;;
1765;SDS011;880;52.452;8.656;2023-04-24T02:24:41;2.75;;;2.65;;
1765;SDS011;880;52.452;8.656;2023-04-24T02:27:08;2.90;;;2.80;;
1765;SDS011;880;52.452;8.656;2023-04-24T02:29:35;3.67;;;2.72;;
1765;SDS011;880;52.452;8.656;2023-04-24T02:32:02;3.75;;;2.70;;
1765;SDS011;880;52.452;8.656;2023-04-24T02:34:29;2.92;;;2.72;;
1765;SDS011;880;52.452;8.656;2023-04-24T02:36:58;2.92;;;2.83;;
1765;SDS011;880;52.452;8.656;2023-04-24T02:39:25;3.05;;;2.95;;
1765;SDS011;880;52.452;8.656;2023-04-24T02:41:53;3.92;;;3.63;;
1765;SDS011;880;52.452;8.656;2023-04-24T02:44:20;3.13;;;2.92;;
1765;SDS011;880;52.452;8.656;2023-04-24T02:46:48;3.60;;;3.40;;
1765;SDS011;880;52.452;8.656;2023-04-24T02:49:15;3.05;;;2.85;;
1765;SDS011;880;52.452;8.656;2023-04-24T02:51:42;2.75;;;2.60;;
1765;SDS011;880;52.452;8.656;2023-04-24T02:54:09;2.75;;;2.65;;
1765;SDS011;880;52.452;8.656;2023-04-24T02:56:37;4.53;;;4.22;;
1765;SDS011;880;52.452;8.656;2023-04-24T02:59:05;2.97;;;2.85;;
1765;SDS011;880;52.452;8.656;2023-04-24T03:01:33;2.92;;;2.83;;
1765;SDS011;880;52.452;8.656;2023-04-24T03:04:00;3.13;;;2.92;;
1765;SDS011;880;52.452;8.656;2023-04-24T03:06:28;3.80;;;3.60;;
1765;SDS011;880;52.452;8.656;2023-04-24T03:08:55;3.35;;;3.25;;
1765;SDS011;880;52.452;8.656;2023-04-24T03:11:21;3.25;;;3.15;;
1765;SDS011;880;52.452;8.656;2023-04-24T03:13:48;3.85;;;3.42;;
1765;SDS011;880;52.452;8.656;2023-04-24T03:16:15;3.33;;;3.03;;
1765;SDS011;880;52.452;8.656;2023-04-24T03:18:42;3.65;;;3.35;;
1765;SDS011;880;52.452;8.656;2023-04-24T03:21:09;3.53;;;3.22;;
1765;SDS011;880;52.452;8.656;2023-04-24T03:23:38;3.25;;;3.00;;
1765;SDS011;880;52.452;8.656;2023-04-24T03:26:06;3.72;;;3.38;;
1765;SDS011;880;52.452;8.656;2023-04-24T03:28:35;3.03;;;2.92;;
1765;SDS011;880;52.452;8.656;2023-04-24T03:31:03;4.50;;;4.20;;
1765;SDS011;880;52.452;8.656;2023-04-24T03:33:34;3.10;;;2.90;;
1765;SDS011;880;52.452;8.656;2023-04-24T03:36:02;3.10;;;2.90;;
1765;SDS011;880;52.452;8.656;2023-04-24T03:38:39;5.90;;;4.15;;
1765;SDS011;880;52.452;8.656;2023-04-24T03:41:20;3.28;;;3.08;;
1765;SDS011;880;52.452;8.656;2023-04-24T03:43:53;3.50;;;3.30;;
1765;SDS011;880;52.452;8.656;2023-04-24T03:46:20;3.25;;;2.92;;
1765;SDS011;880;52.452;8.656;2023-04-24T03:48:52;4.55;;;4.25;;
1765;SDS011;880;52.452;8.656;2023-04-24T03:51:25;3.17;;;2.97;;
1765;SDS011;880;52.452;8.656;2023-04-24T03:53:58;4.03;;;3.40;;
1765;SDS011;880;52.452;8.656;2023-04-24T03:58:54;3.65;;;3.10;;
1765;SDS011;880;52.452;8.656;2023-04-24T04:01:22;4.82;;;3.17;;
1765;SDS011;880;52.452;8.656;2023-04-24T04:03:58;5.05;;;4.47;;
1765;SDS011;880;52.452;8.656;2023-04-24T04:06:26;3.58;;;3.28;;
1765;SDS011;880;52.452;8.656;2023-04-24T04:08:54;3.75;;;3.45;;
1765;SDS011;880;52.452;8.656;2023-04-24T04:11:22;3.80;;;3.50;;
1765;SDS011;880;52.452;8.656;2023-04-24T04:13:50;3.95;;;3.65;;
1765;SDS011;880;52.452;8.656;2023-04-24T04:16:19;5.40;;;4.93;;
1765;SDS011;880;52.452;8.656;2023-04-24T04:18:49;4.43;;;4.03;;
1765;SDS011;880;52.452;8.656;2023-04-24T04:21:17;5.60;;;4.03;;
1765;SDS011;880;52.452;8.656;2023-04-24T04:23:44;4.30;;;4.00;;
1765;SDS011;880;52.452;8.656;2023-04-24T04:26:18;5.05;;;4.65;;
1765;SDS011;880;52.452;8.656;2023-04-24T04:29:05;5.00;;;4.68;;
1765;SDS011;880;52.452;8.656;2023-04-24T04:31:35;4.40;;;4.15;;
1765;SDS011;880;52.452;8.656;2023-04-24T04:34:07;5.68;;;5.25;;
1765;SDS011;880;52.452;8.656;2023-04-24T04:36:34;5.57;;;5.18;;
1765;SDS011;880;52.452;8.656;2023-04-24T04:39:17;4.97;;;4.47;;
1765;SDS011;880;52.452;8.656;2023-04-24T04:41:56;6.55;;;6.05;;
1765;SDS011;880;52.452;8.656;2023-04-24T04:44:27;4.35;;;4.05;;
1765;SDS011;880;52.452;8.656;2023-04-24T04:46:56;5.43;;;4.95;;
1765;SDS011;880;52.452;8.656;2023-04-24T04:49:27;6.80;;;6.20;;
1765;SDS011;880;52.452;8.656;2023-04-24T04:51:55;6.72;;;6.38;;
1765;SDS011;880;52.452;8.656;2023-04-24T04:54:24;4.45;;;4.05;;
1765;SDS011;880;52.452;8.656;2023-04-24T04:56:51;6.35;;;5.85;;
1765;SDS011;880;52.452;8.656;2023-04-24T04:59:18;6.35;;;5.80;;
1765;SDS011;880;52.452;8.656;2023-04-24T05:01:48;6.35;;;5.80;;
1765;SDS011;880;52.452;8.656;2023-04-24T05:04:16;7.47;;;6.85;;
1765;SDS011;880;52.452;8.656;2023-04-24T05:06:43;7.53;;;6.80;;
1765;SDS011;880;52.452;8.656;2023-04-24T05:09:10;8.38;;;6.47;;
1765;SDS011;880;52.452;8.656;2023-04-24T05:11:49;6.47;;;5.88;;
1765;SDS011;880;52.452;8.656;2023-04-24T05:14:16;10.45;;;6.28;;
1765;SDS011;880;52.452;8.656;2023-04-24T05:16:44;9.60;;;6.72;;
1765;SDS011;880;52.452;8.656;2023-04-24T05:19:13;7.10;;;6.43;;
1765;SDS011;880;52.452;8.656;2023-04-24T05:21:40;6.65;;;6.07;;
1765;SDS011;880;52.452;8.656;2023-04-24T05:24:09;7.68;;;6.65;;
1765;SDS011;880;52.452;8.656;2023-04-24T05:26:57;7.93;;;7.22;;
1765;SDS011;880;52.452;8.656;2023-04-24T05:29:38;8.07;;;7.30;;
1765;SDS011;880;52.452;8.656;2023-04-24T05:32:05;6.95;;;6.35;;
1765;SDS011;880;52.452;8.656;2023-04-24T05:34:33;7.80;;;7.10;;
1765;SDS011;880;52.452;8.656;2023-04-24T05:37:01;7.22;;;6.53;;
1765;SDS011;880;52.452;8.656;2023-04-24T05:39:29;12.55;;;11.50;;
1765;SDS011;880;52.452;8.656;2023-04-24T05:41:56;9.18;;;8.10;;
1765;SDS011;880;52.452;8.656;2023-04-24T05:44:24;8.05;;;7.35;;
1765;SDS011;880;52.452;8.656;2023-04-24T05:46:51;8.88;;;7.97;;
1765;SDS011;880;52.452;8.656;2023-04-24T05:49:25;10.75;;;8.85;;
1765;SDS011;880;52.452;8.656;2023-04-24T05:51:52;11.82;;;10.63;;
1765;SDS011;880;52.452;8.656;2023-04-24T05:54:19;10.77;;;9.43;;
1765;SDS011;880;52.452;8.656;2023-04-24T05:56:46;12.32;;;10.80;;
1765;SDS011;880;52.452;8.656;2023-04-24T05:59:20;10.07;;;8.95;;
1765;SDS011;880;52.452;8.656;2023-04-24T06:01:49;12.38;;;8.98;;
1765;SDS011;880;52.452;8.656;2023-04-24T06:06:46;14.52;;;11.50;;
1765;SDS011;880;52.452;8.656;2023-04-24T06:09:17;15.07;;;12.55;;
1765;SDS011;880;52.452;8.656;2023-04-24T06:11:44;13.63;;;12.23;;
1765;SDS011;880;52.452;8.656;2023-04-24T06:14:12;15.93;;;11.48;;
1765;SDS011;880;52.452;8.656;2023-04-24T06:17:15;15.43;;;11.07;;
1765;SDS011;880;52.452;8.656;2023-04-24T06:19:44;13.98;;;10.70;;
1765;SDS011;880;52.452;8.656;2023-04-24T06:22:11;16.52;;;11.95;;
1765;SDS011;880;52.452;8.656;2023-04-24T06:24:41;16.02;;;11.77;;
1765;SDS011;880;52.452;8.656;2023-04-24T06:27:08;14.02;;;11.00;;
1765;SDS011;880;52.452;8.656;2023-04-24T06:29:35;13.68;;;10.48;;
1765;SDS011;880;52.452;8.656;2023-04-24T06:32:03;21.17;;;13.25;;
1765;SDS011;880;52.452;8.656;2023-04-24T06:34:31;16.08;;;10.32;;
1765;SDS011;880;52.452;8.656;2023-04-24T06:37:00;14.57;;;12.10;;
1765;SDS011;880;52.452;8.656;2023-04-24T06:39:27;14.52;;;10.52;;
1765;SDS011;880;52.452;8.656;2023-04-24T06:41:54;15.40;;;11.32;;
1765;SDS011;880;52.452;8.656;2023-04-24T06:44:22;16.63;;;11.68;;
1765;SDS011;880;52.452;8.656;2023-04-24T06:46:49;12.05;;;9.43;;
1765;SDS011;880;52.452;8.656;2023-04-24T06:49:16;16.52;;;12.82;;
1765;SDS011;880;52.452;8.656;2023-04-24T06:51:43;10.65;;;9.73;;
1765;SDS011;880;52.452;8.656;2023-04-24T06:54:10;15.13;;;11.07;;
1765;SDS011;880;52.452;8.656;2023-04-24T06:56:37;13.35;;;10.98;;
1765;SDS011;880;52.452;8.656;2023-04-24T06:59:04;11.52;;;10.25;;
1765;SDS011;880;52.452;8.656;2023-04-24T07:01:31;13.90;;;10.05;;
1765;SDS011;880;52.452;8.656;2023-04-24T07:03:58;14.52;;;10.30;;
1765;SDS011;880;52.452;8.656;2023-04-24T07:06:26;16.88;;;11.30;;
1765;SDS011;880;52.452;8.656;2023-04-24T07:08:53;12.98;;;10.05;;
1765;SDS011;880;52.452;8.656;2023-04-24T07:11:20;17.20;;;11.75;;
1765;SDS011;880;52.452;8.656;2023-04-24T07:13:48;16.48;;;11.73;;
1765;SDS011;880;52.452;8.656;2023-04-24T07:16:15;17.95;;;11.88;;
1765;SDS011;880;52.452;8.656;2023-04-24T07:18:42;22.70;;;13.73;;
1765;SDS011;880;52.452;8.656;2023-04-24T07:21:09;21.42;;;13.77;;
1765;SDS011;880;52.452;8.656;2023-04-24T07:23:37;13.15;;;9.60;;
1765;SDS011;880;52.452;8.656;2023-04-24T07:26:04;17.02;;;12.05;;
1765;SDS011;880;52.452;8.656;2023-04-24T07:28:31;13.15;;;9.88;;
1765;SDS011;880;52.452;8.656;2023-04-24T07:30:58;17.50;;;13.20;;
1765;SDS011;880;52.452;8.656;2023-04-24T07:33:26;15.95;;;12.25;;
1765;SDS011;880;52.452;8.656;2023-04-24T07:35:53;13.32;;;10.50;;
1765;SDS011;880;52.452;8.656;2023-04-24T07:38:20;14.45;;;11.70;;
1765;SDS011;880;52.452;8.656;2023-04-24T07:40:48;16.77;;;13.93;;
1765;SDS011;880;52.452;8.656;2023-04-24T07:43:15;13.48;;;9.57;;
1765;SDS011;880;52.452;8.656;2023-04-24T07:45:42;17.67;;;11.85;;
1765;SDS011;880;52.452;8.656;2023-04-24T07:48:10;15.10;;;11.05;;
1765;SDS011;880;52.452;8.656;2023-04-24T07:50:40;10.27;;;9.25;;
1765;SDS011;880;52.452;8.656;2023-04-24T07:53:07;11.65;;;10.45;;
1765;SDS011;880;52.452;8.656;2023-04-24T07:55:34;19.27;;;11.95;;
1765;SDS011;880;52.452;8.656;2023-04-24T07:58:01;13.10;;;9.80;;
1765;SDS011;880;52.452;8.656;2023-04-24T08:00:28;10.70;;;9.63;;
1765;SDS011;880;52.452;8.656;2023-04-24T08:02:55;10.63;;;8.25;;
1765;SDS011;880;52.452;8.656;2023-04-24T08:05:22;13.57;;;10.50;;
1765;SDS011;880;52.452;8.656;2023-04-24T08:07:51;11.77;;;10.32;;
1765;SDS011;880;52.452;8.656;2023-04-24T08:10:19;14.77;;;10.90;;
1765;SDS011;880;52.452;8.656;2023-04-24T08:12:47;12.18;;;10.88;;
1765;SDS011;880;52.452;8.656;2023-04-24T08:15:14;12.27;;;8.65;;
1765;SDS011;880;52.452;8.656;2023-04-24T08:17:41;7.88;;;7.28;;
1765;SDS011;880;52.452;8.656;2023-04-24T08:20:11;12.90;;;11.60;;
1765;SDS011;880;52.452;8.656;2023-04-24T08:22:42;10.45;;;9.45;;
1765;SDS011;880;52.452;8.656;2023-04-24T08:25:10;9.65;;;8.65;;
1765;SDS011;880;52.452;8.656;2023-04-24T08:27:37;9.52;;;8.52;;
1765;SDS011;880;52.452;8.656;2023-04-24T08:30:05;12.00;;;10.32;;
1765;SDS011;880;52.452;8.656;2023-04-24T08:32:33;9.70;;;8.80;;
1765;SDS011;880;52.452;8.656;2023-04-24T08:35:00;12.27;;;10.65;;
1765;SDS011;880;52.452;8.656;2023-04-24T08:37:27;11.25;;;9.13;;
1765;SDS011;880;52.452;8.656;2023-04-24T08:39:54;9.20;;;8.40;;
1765;SDS011;880;52.452;8.656;2023-04-24T08:42:21;9.18;;;8.27;;
1765;SDS011;880;52.452;8.656;2023-04-24T08:44:49;7.25;;;6.75;;
1765;SDS011;880;52.452;8.656;2023-04-24T08:47:16;10.20;;;8.68;;
1765;SDS011;880;52.452;8.656;2023-04-24T08:49:44;8.10;;;7.40;;
1765;SDS011;880;52.452;8.656;2023-04-24T08:52:12;9.02;;;8.13;;
1765;SDS011;880;52.452;8.656;2023-04-24T08:54:39;12.20;;;10.32;;
1765;SDS011;880;52.452;8.656;2023-04-24T08:57:09;10.75;;;8.38;;
1765;SDS011;880;52.452;8.656;2023-04-24T08:59:38;9.98;;;9.02;;
1765;SDS011;880;52.452;8.656;2023-04-24T09:02:06;10.88;;;8.35;;
1765;SDS011;880;52.452;8.656;2023-04-24T09:04:38;11.90;;;9.18;;
1765;SDS011;880;52.452;8.656;2023-04-24T09:07:07;9.52;;;8.63;;
1765;SDS011;880;52.452;8.656;2023-04-24T09:09:36;9.48;;;8.65;;
1765;SDS011;880;52.452;8.656;2023-04-24T09:12:05;9.85;;;8.88;;
1765;SDS011;880;52.452;8.656;2023-04-24T09:14:32;10.77;;;9.82;;
1765;SDS011;880;52.452;8.656;2023-04-24T09:16:59;8.70;;;8.10;;
1765;SDS011;880;52.452;8.656;2023-04-24T09:19:26;10.13;;;9.13;;
1765;SDS011;880;52.452;8.656;2023-04-24T09:21:53;8.95;;;7.50;;
1765;SDS011;880;52.452;8.656;2023-04-24T09:24:21;7.28;;;6.70;;
1765;SDS011;880;52.452;8.656;2023-04-24T09:26:55;8.00;;;7.30;;
1765;SDS011;880;52.452;8.656;2023-04-24T09:29:24;8.05;;;6.88;;
1765;SDS011;880;52.452;8.656;2023-04-24T09:31:51;7.22;;;6.72;;
1765;SDS011;880;52.452;8.656;2023-04-24T09:34:22;6.80;;;6.30;;
1765;SDS011;880;52.452;8.656;2023-04-24T09:36:51;7.35;;;6.85;;
1765;SDS011;880;52.452;8.656;2023-04-24T09:39:19;6.60;;;6.15;;
1765;SDS011;880;52.452;8.656;2023-04-24T09:41:53;9.20;;;8.60;;
1765;SDS011;880;52.452;8.656;2023-04-24T09:44:26;8.45;;;7.47;;
1765;SDS011;880;52.452;8.656;2023-04-24T09:46:55;6.78;;;6.38;;
1765;SDS011;880;52.452;8.656;2023-04-24T09:49:24;7.35;;;6.82;;
1765;SDS011;880;52.452;8.656;2023-04-24T09:52:02;6.85;;;6.45;;
1765;SDS011;880;52.452;8.656;2023-04-24T09:54:35;7.57;;;6.95;;
1765;SDS011;880;52.452;8.656;2023-04-24T09:57:03;8.65;;;7.88;;
1765;SDS011;880;52.452;8.656;2023-04-24T09:59:30;7.47;;;6.68;;
1765;SDS011;880;52.452;8.656;2023-04-24T10:01:59;7.20;;;6.50;;
1765;SDS011;880;52.452;8.656;2023-04-24T10:04:27;7.07;;;6.50;;
1765;SDS011;880;52.452;8.656;2023-04-24T10:06:56;8.02;;;7.28;;
1765;SDS011;880;52.452;8.656;2023-04-24T10:09:25;6.25;;;5.85;;
1765;SDS011;880;52.452;8.656;2023-04-24T10:11:53;7.53;;;6.93;;
1765;SDS011;880;52.452;8.656;2023-04-24T10:14:22;6.78;;;6.28;;
1765;SDS011;880;52.452;8.656;2023-04-24T10:16:52;7.03;;;6.53;;
1765;SDS011;880;52.452;8.656;2023-04-24T10:19:20;7.80;;;7.22;;
1765;SDS011;880;52.452;8.656;2023-04-24T10:21:52;6.72;;;6.20;;
1765;SDS011;880;52.452;8.656;2023-04-24T10:24:20;9.20;;;8.32;;
1765;SDS011;880;52.452;8.656;2023-04-24T10:26:47;9.77;;;8.98;;
1765;SDS011;880;52.452;8.656;2023-04-24T10:29:16;6.68;;;6.18;;
1765;SDS011;880;52.452;8.656;2023-04-24T10:31:45;5.90;;;5.53;;
1765;SDS011;880;52.452;8.656;2023-04-24T10:34:14;8.15;;;7.60;;
1765;SDS011;880;52.452;8.656;2023-04-24T10:36:48;5.82;;;5.43;;
1765;SDS011;880;52.452;8.656;2023-04-24T10:39:21;7.25;;;6.55;;
1765;SDS011;880;52.452;8.656;2023-04-24T10:41:53;8.27;;;7.68;;
1765;SDS011;880;52.452;8.656;2023-04-24T10:44:23;8.50;;;7.80;;
1765;SDS011;880;52.452;8.656;2023-04-24T10:46:54;7.30;;;6.78;;
1765;SDS011;880;52.452;8.656;2023-04-24T10:49:29;7.88;;;7.10;;
1765;SDS011;880;52.452;8.656;2023-04-24T10:52:01;6.30;;;5.90;;
1765;SDS011;880;52.452;8.656;2023-04-24T10:54:45;6.88;;;6.35;;
1765;SDS011;880;52.452;8.656;2023-04-24T10:59:48;7.95;;;6.60;;
1765;SDS011;880;52.452;8.656;2023-04-24T11:02:39;7.15;;;6.65;;
1765;SDS011;880;52.452;8.656;2023-04-24T11:05:15;6.82;;;6.22;;
1765;SDS011;880;52.452;8.656;2023-04-24T11:10:57;6.45;;;6.05;;
1765;SDS011;880;52.452;8.656;2023-04-24T11:21:47;6.00;;;5.45;;
1765;SDS011;880;52.452;8.656;2023-04-24T11:27:13;7.93;;;7.22;;
1765;SDS011;880;52.452;8.656;2023-04-24T11:32:25;6.13;;;5.72;;
1765;SDS011;880;52.452;8.656;2023-04-24T11:35:01;5.82;;;5.53;;
1765;SDS011;880;52.452;8.656;2023-04-24T11:37:56;6.80;;;6.30;;
1765;SDS011;880;52.452;8.656;2023-04-24T11:40:28;5.30;;;5.00;;
1765;SDS011;880;52.452;8.656;2023-04-24T11:42:55;5.85;;;5.45;;
1765;SDS011;880;52.452;8.656;2023-04-24T11:45:23;5.45;;;5.05;;
1765;SDS011;880;52.452;8.656;2023-04-24T11:47:59;5.68;;;5.28;;
1765;SDS011;880;52.452;8.656;2023-04-24T11:50:29;5.15;;;4.75;;
1765;SDS011;880;52.452;8.656;2023-04-24T11:52:56;3.92;;;3.72;;
1765;SDS011;880;52.452;8.656;2023-04-24T11:55:25;3.78;;;3.58;;
1765;SDS011;880;52.452;8.656;2023-04-24T11:57:54;3.50;;;3.30;;
1765;SDS011;880;52.452;8.656;2023-04-24T12:00:25;3.30;;;3.10;;
1765;SDS011;880;52.452;8.656;2023-04-24T12:03:04;3.28;;;3.10;;
1765;SDS011;880;52.452;8.656;2023-04-24T12:05:38;3.47;;;3.25;;
1765;SDS011;880;52.452;8.656;2023-04-24T12:08:06;3.42;;;3.10;;
1765;SDS011;880;52.452;8.656;2023-04-24T12:10:33;3.63;;;3.42;;
1765;SDS011;880;52.452;8.656;2023-04-24T12:13:01;3.30;;;3.15;;
1765;SDS011;880;52.452;8.656;2023-04-24T12:15:29;10.70;;;3.58;;
1765;SDS011;880;52.452;8.656;2023-04-24T12:17:56;3.40;;;3.20;;
1765;SDS011;880;52.452;8.656;2023-04-24T12:20:28;3.75;;;3.40;;
1765;SDS011;880;52.452;8.656;2023-04-24T12:22:59;3.80;;;3.60;;
1765;SDS011;880;52.452;8.656;2023-04-24T12:25:28;4.93;;;4.72;;
1765;SDS011;880;52.452;8.656;2023-04-24T12:30:33;3.45;;;3.25;;
1765;SDS011;880;52.452;8.656;2023-04-24T12:33:06;4.20;;;4.00;;
1765;SDS011;880;52.452;8.656;2023-04-24T12:35:33;3.78;;;3.47;;
1765;SDS011;880;52.452;8.656;2023-04-24T12:38:08;4.75;;;4.45;;
1765;SDS011;880;52.452;8.656;2023-04-24T12:40:44;5.45;;;5.05;;
1765;SDS011;880;52.452;8.656;2023-04-24T12:43:14;5.82;;;5.43;;
1765;SDS011;880;52.452;8.656;2023-04-24T12:45:43;5.03;;;4.63;;
1765;SDS011;880;52.452;8.656;2023-04-24T12:48:11;5.95;;;5.53;;
1765;SDS011;880;52.452;8.656;2023-04-24T12:50:40;7.28;;;6.57;;
1765;SDS011;880;52.452;8.656;2023-04-24T12:53:12;6.88;;;6.28;;
1765;SDS011;880;52.452;8.656;2023-04-24T12:55:39;6.88;;;6.28;;
1765;SDS011;880;52.452;8.656;2023-04-24T12:58:06;8.07;;;6.13;;
1765;SDS011;880;52.452;8.656;2023-04-24T13:00:34;7.13;;;6.53;;
1765;SDS011;880;52.452;8.656;2023-04-24T13:03:01;5.90;;;5.18;;
1765;SDS011;880;52.452;8.656;2023-04-24T13:05:29;6.50;;;5.22;;
1765;SDS011;880;52.452;8.656;2023-04-24T13:07:57;7.15;;;5.82;;
1765;SDS011;880;52.452;8.656;2023-04-24T13:10:23;6.90;;;6.40;;
1765;SDS011;880;52.452;8.656;2023-04-24T13:12:51;7.28;;;6.55;;
1765;SDS011;880;52.452;8.656;2023-04-24T13:15:18;7.70;;;6.47;;
1765;SDS011;880;52.452;8.656;2023-04-24T13:17:45;7.00;;;6.40;;
1765;SDS011;880;52.452;8.656;2023-04-24T13:20:12;6.95;;;6.35;;
1765;SDS011;880;52.452;8.656;2023-04-24T13:22:39;6.75;;;6.05;;
1765;SDS011;880;52.452;8.656;2023-04-24T13:25:06;12.75;;;7.53;;
1765;SDS011;880;52.452;8.656;2023-04-24T13:27:33;7.68;;;5.82;;
1765;SDS011;880;52.452;8.656;2023-04-24T13:30:00;5.93;;;5.40;;
1765;SDS011;880;52.452;8.656;2023-04-24T13:32:27;7.35;;;6.85;;
1765;SDS011;880;52.452;8.656;2023-04-24T13:34:55;7.53;;;6.88;;
1765;SDS011;880;52.452;8.656;2023-04-24T13:37:23;7.18;;;6.57;;
1765;SDS011;880;52.452;8.656;2023-04-24T13:39:50;5.90;;;5.40;;
1765;SDS011;880;52.452;8.656;2023-04-24T13:42:17;7.03;;;6.20;;
1765;SDS011;880;52.452;8.656;2023-04-24T13:44:46;7.05;;;5.50;;
1765;SDS011;880;52.452;8.656;2023-04-24T13:47:13;5.40;;;4.97;;
1765;SDS011;880;52.452;8.656;2023-04-24T13:49:40;11.30;;;8.85;;
1765;SDS011;880;52.452;8.656;2023-04-24T13:52:07;7.78;;;6.13;;
1765;SDS011;880;52.452;8.656;2023-04-24T13:54:34;5.07;;;4.72;;
1765;SDS011;880;52.452;8.656;2023-04-24T13:57:01;5.75;;;5.30;;
1765;SDS011;880;52.452;8.656;2023-04-24T13:59:29;6.68;;;5.78;;
1765;SDS011;880;52.452;8.656;2023-04-24T14:01:56;7.90;;;5.95;;
1765;SDS011;880;52.452;8.656;2023-04-24T14:04:23;6.72;;;5.50;;
1765;SDS011;880;52.452;8.656;2023-04-24T14:06:51;5.45;;;5.00;;
1765;SDS011;880;52.452;8.656;2023-04-24T14:09:18;6.95;;;5.13;;
1765;SDS011;880;52.452;8.656;2023-04-24T14:11:45;9.00;;;8.23;;
1765;SDS011;880;52.452;8.656;2023-04-24T14:14:12;14.02;;;7.07;;
1765;SDS011;880;52.452;8.656;2023-04-24T14:16:39;9.23;;;6.13;;
1765;SDS011;880;52.452;8.656;2023-04-24T14:19:06;9.20;;;6.70;;
1765;SDS011;880;52.452;8.656;2023-04-24T14:21:33;12.60;;;6.70;;
1765;SDS011;880;52.452;8.656;2023-04-24T14:24:00;8.35;;;5.18;;
1765;SDS011;880;52.452;8.656;2023-04-24T14:26:27;6.15;;;5.45;;
1765;SDS011;880;52.452;8.656;2023-04-24T14:28:54;7.40;;;6.70;;
1765;SDS011;880;52.452;8.656;2023-04-24T14:31:39;8.18;;;6.10;;
1765;SDS011;880;52.452;8.656;2023-04-24T14:34:06;8.10;;;6.65;;
1765;SDS011;880;52.452;8.656;2023-04-24T14:36:33;9.35;;;7.38;;
1765;SDS011;880;52.452;8.656;2023-04-24T14:38:59;7.15;;;6.30;;
1765;SDS011;880;52.452;8.656;2023-04-24T14:41:29;11.15;;;6.53;;
1765;SDS011;880;52.452;8.656;2023-04-24T14:43:57;8.70;;;6.32;;
1765;SDS011;880;52.452;8.656;2023-04-24T14:46:24;9.38;;;7.40;;
1765;SDS011;880;52.452;8.656;2023-04-24T14:48:51;8.50;;;7.60;;
1765;SDS011;880;52.452;8.656;2023-04-24T14:51:18;6.25;;;5.38;;
1765;SDS011;880;52.452;8.656;2023-04-24T14:53:45;8.80;;;6.63;;
1765;SDS011;880;52.452;8.656;2023-04-24T14:56:13;7.03;;;5.78;;
1765;SDS011;880;52.452;8.656;2023-04-24T14:58:41;6.63;;;5.97;;
1765;SDS011;880;52.452;8.656;2023-04-24T15:01:08;6.88;;;6.30;;
1765;SDS011;880;52.452;8.656;2023-04-24T15:03:35;5.78;;;5.30;;
1765;SDS011;880;52.452;8.656;2023-04-24T15:06:03;6.40;;;5.88;;
1765;SDS011;880;52.452;8.656;2023-04-24T15:08:30;7.20;;;5.43;;
1765;SDS011;880;52.452;8.656;2023-04-24T15:10:57;8.25;;;7.32;;
1765;SDS011;880;52.452;8.656;2023-04-24T15:13:24;7.90;;;6.53;;
1765;SDS011;880;52.452;8.656;2023-04-24T15:15:51;5.65;;;5.30;;
1765;SDS011;880;52.452;8.656;2023-04-24T15:18:18;5.60;;;5.07;;
1765;SDS011;880;52.452;8.656;2023-04-24T15:20:45;5.18;;;4.85;;
1765;SDS011;880;52.452;8.656;2023-04-24T15:23:12;5.55;;;5.05;;
1765;SDS011;880;52.452;8.656;2023-04-24T15:25:39;5.00;;;4.55;;
1765;SDS011;880;52.452;8.656;2023-04-24T15:28:06;7.50;;;5.03;;
1765;SDS011;880;52.452;8.656;2023-04-24T15:30:33;4.32;;;4.07;;
1765;SDS011;880;52.452;8.656;2023-04-24T15:33:00;5.25;;;4.78;;
1765;SDS011;880;52.452;8.656;2023-04-24T15:35:27;6.65;;;4.60;;
1765;SDS011;880;52.452;8.656;2023-04-24T15:37:55;5.38;;;4.97;;
1765;SDS011;880;52.452;8.656;2023-04-24T15:40:22;4.43;;;4.18;;
1765;SDS011;880;52.452;8.656;2023-04-24T15:42:49;6.03;;;4.85;;
1765;SDS011;880;52.452;8.656;2023-04-24T15:45:16;6.05;;;5.63;;
1765;SDS011;880;52.452;8.656;2023-04-24T15:47:44;5.07;;;4.68;;
1765;SDS011;880;52.452;8.656;2023-04-24T15:50:14;8.80;;;4.45;;
1765;SDS011;880;52.452;8.656;2023-04-24T15:52:43;13.70;;;7.93;;
1765;SDS011;880;52.452;8.656;2023-04-24T15:55:11;5.07;;;4.78;;
1765;SDS011;880;52.452;8.656;2023-04-24T15:57:38;7.20;;;5.97;;
1765;SDS011;880;52.452;8.656;2023-04-24T16:00:06;6.07;;;5.45;;
1765;SDS011;880;52.452;8.656;2023-04-24T16:02:37;5.75;;;5.15;;